sensor_id;sensor_type;location;lat;lon;timestamp;temperature;humidity
64937;SHT30;51452;47.698;19.050;2023-12-20T00:00:16;-0.15;83.05
64937;SHT30;51452;47.698;19.050;2023-12-20T00:02:41;-0.19;82.95
64937;SHT30;51452;47.698;19.050;2023-12-20T00:05:10;-0.19;82.85
64937;SHT30;51452;47.698;19.050;2023-12-20T00:07:35;-0.20;82.26
64937;SHT30;51452;47.698;19.050;2023-12-20T00:10:00;-0.22;81.65
64937;SHT30;51452;47.698;19.050;2023-12-20T00:12:26;-0.30;81.61
64937;SHT30;51452;47.698;19.050;2023-12-20T00:14:51;-0.25;82.53
64937;SHT30;51452;47.698;19.050;2023-12-20T00:17:16;-0.23;82.46
64937;SHT30;51452;47.698;19.050;2023-12-20T00:19:42;-0.34;82.76
64937;SHT30;51452;47.698;19.050;2023-12-20T00:22:07;-0.27;82.89
64937;SHT30;51452;47.698;19.050;2023-12-20T00:24:33;-0.29;83.21
64937;SHT30;51452;47.698;19.050;2023-12-20T00:26:58;-0.27;83.44
64937;SHT30;51452;47.698;19.050;2023-12-20T00:29:23;-0.27;83.35
64937;SHT30;51452;47.698;19.050;2023-12-20T00:31:49;-0.36;83.50
64937;SHT30;51452;47.698;19.050;2023-12-20T00:34:15;-0.25;82.66
64937;SHT30;51452;47.698;19.050;2023-12-20T00:36:40;-0.29;81.55
64937;SHT30;51452;47.698;19.050;2023-12-20T00:39:05;-0.30;81.54
64937;SHT30;51452;47.698;19.050;2023-12-20T00:41:32;-0.25;81.39
64937;SHT30;51452;47.698;19.050;2023-12-20T00:43:57;-0.23;81.08
64937;SHT30;51452;47.698;19.050;2023-12-20T00:46:22;-0.27;81.48
64937;SHT30;51452;47.698;19.050;2023-12-20T00:48:48;-0.23;82.09
64937;SHT30;51452;47.698;19.050;2023-12-20T00:51:13;-0.19;82.70
64937;SHT30;51452;47.698;19.050;2023-12-20T00:53:39;-0.19;82.75
64937;SHT30;51452;47.698;19.050;2023-12-20T00:56:04;-0.09;82.89
64937;SHT30;51452;47.698;19.050;2023-12-20T00:58:30;-0.06;82.47
64937;SHT30;51452;47.698;19.050;2023-12-20T01:00:55;-0.17;82.10
64937;SHT30;51452;47.698;19.050;2023-12-20T01:03:20;-0.23;82.98
64937;SHT30;51452;47.698;19.050;2023-12-20T01:05:46;-0.25;83.05
64937;SHT30;51452;47.698;19.050;2023-12-20T01:08:11;-0.16;82.64
64937;SHT30;51452;47.698;19.050;2023-12-20T01:10:37;-0.15;83.04
64937;SHT30;51452;47.698;19.050;2023-12-20T01:13:03;-0.08;82.96
64937;SHT30;51452;47.698;19.050;2023-12-20T01:15:28;-0.08;82.94
64937;SHT30;51452;47.698;19.050;2023-12-20T01:17:54;-0.10;82.74
64937;SHT30;51452;47.698;19.050;2023-12-20T01:20:19;-0.19;83.34
64937;SHT30;51452;47.698;19.050;2023-12-20T01:22:45;-0.22;83.13
64937;SHT30;51452;47.698;19.050;2023-12-20T01:25:11;-0.34;83.33
64937;SHT30;51452;47.698;19.050;2023-12-20T01:27:36;-0.40;83.00
64937;SHT30;51452;47.698;19.050;2023-12-20T01:30:02;-0.32;83.37
64937;SHT30;51452;47.698;19.050;2023-12-20T01:32:27;-0.44;83.18
64937;SHT30;51452;47.698;19.050;2023-12-20T01:34:52;-0.34;83.77
64937;SHT30;51452;47.698;19.050;2023-12-20T01:37:18;-0.26;83.53
64937;SHT30;51452;47.698;19.050;2023-12-20T01:39:43;-0.26;83.56
64937;SHT30;51452;47.698;19.050;2023-12-20T01:42:09;-0.15;83.58
64937;SHT30;51452;47.698;19.050;2023-12-20T01:44:34;-0.15;83.42
64937;SHT30;51452;47.698;19.050;2023-12-20T01:47:00;-0.10;82.73
64937;SHT30;51452;47.698;19.050;2023-12-20T01:49:25;-0.12;81.43
64937;SHT30;51452;47.698;19.050;2023-12-20T01:51:51;-0.20;81.41
64937;SHT30;51452;47.698;19.050;2023-12-20T01:54:17;-0.30;81.72
64937;SHT30;51452;47.698;19.050;2023-12-20T01:56:44;-0.20;81.67
64937;SHT30;51452;47.698;19.050;2023-12-20T01:59:10;-0.25;81.58
64937;SHT30;51452;47.698;19.050;2023-12-20T02:01:35;-0.25;81.04
64937;SHT30;51452;47.698;19.050;2023-12-20T02:04:01;-0.26;80.94
64937;SHT30;51452;47.698;19.050;2023-12-20T02:06:29;-0.26;81.11
64937;SHT30;51452;47.698;19.050;2023-12-20T02:08:57;-0.33;81.02
64937;SHT30;51452;47.698;19.050;2023-12-20T02:11:23;-0.27;81.32
64937;SHT30;51452;47.698;19.050;2023-12-20T02:13:50;-0.30;81.33
64937;SHT30;51452;47.698;19.050;2023-12-20T02:16:15;-0.27;81.54
64937;SHT30;51452;47.698;19.050;2023-12-20T02:18:42;-0.27;82.10
64937;SHT30;51452;47.698;19.050;2023-12-20T02:21:11;-0.25;82.16
64937;SHT30;51452;47.698;19.050;2023-12-20T02:23:37;-0.27;82.63
64937;SHT30;51452;47.698;19.050;2023-12-20T02:26:03;-0.25;82.65
64937;SHT30;51452;47.698;19.050;2023-12-20T02:28:29;-0.30;82.84
64937;SHT30;51452;47.698;19.050;2023-12-20T02:30:55;-0.32;83.04
64937;SHT30;51452;47.698;19.050;2023-12-20T02:33:21;-0.37;83.38
64937;SHT30;51452;47.698;19.050;2023-12-20T02:35:46;-0.49;83.63
64937;SHT30;51452;47.698;19.050;2023-12-20T02:38:12;-0.49;83.91
64937;SHT30;51452;47.698;19.050;2023-12-20T02:40:37;-0.53;83.51
64937;SHT30;51452;47.698;19.050;2023-12-20T02:43:03;-0.53;83.39
64937;SHT30;51452;47.698;19.050;2023-12-20T02:45:28;-0.57;83.12
64937;SHT30;51452;47.698;19.050;2023-12-20T02:47:54;-0.54;83.24
64937;SHT30;51452;47.698;19.050;2023-12-20T02:50:19;-0.60;83.12
64937;SHT30;51452;47.698;19.050;2023-12-20T02:52:45;-0.47;83.68
64937;SHT30;51452;47.698;19.050;2023-12-20T02:55:11;-0.44;83.80
64937;SHT30;51452;47.698;19.050;2023-12-20T02:57:36;-0.36;84.23
64937;SHT30;51452;47.698;19.050;2023-12-20T03:00:09;-0.26;84.03
64937;SHT30;51452;47.698;19.050;2023-12-20T03:02:36;-0.23;84.06
64937;SHT30;51452;47.698;19.050;2023-12-20T03:05:02;-0.26;83.50
64937;SHT30;51452;47.698;19.050;2023-12-20T03:07:28;-0.30;83.63
64937;SHT30;51452;47.698;19.050;2023-12-20T03:09:53;-0.39;83.42
64937;SHT30;51452;47.698;19.050;2023-12-20T03:12:18;-0.52;83.83
64937;SHT30;51452;47.698;19.050;2023-12-20T03:14:44;-0.60;84.20
64937;SHT30;51452;47.698;19.050;2023-12-20T03:17:10;-0.52;84.13
64937;SHT30;51452;47.698;19.050;2023-12-20T03:19:35;-0.60;84.35
64937;SHT30;51452;47.698;19.050;2023-12-20T03:22:01;-0.56;84.80
64937;SHT30;51452;47.698;19.050;2023-12-20T03:24:26;-0.57;84.54
64937;SHT30;51452;47.698;19.050;2023-12-20T03:26:52;-0.60;84.59
64937;SHT30;51452;47.698;19.050;2023-12-20T03:29:17;-0.54;84.31
64937;SHT30;51452;47.698;19.050;2023-12-20T03:31:45;-0.49;84.26
64937;SHT30;51452;47.698;19.050;2023-12-20T03:34:11;-0.49;83.95
64937;SHT30;51452;47.698;19.050;2023-12-20T03:36:37;-0.46;84.01
64937;SHT30;51452;47.698;19.050;2023-12-20T03:39:05;-0.53;83.78
64937;SHT30;51452;47.698;19.050;2023-12-20T03:41:30;-0.50;83.54
64937;SHT30;51452;47.698;19.050;2023-12-20T03:43:55;-0.53;83.97
64937;SHT30;51452;47.698;19.050;2023-12-20T03:46:21;-0.49;83.70
64937;SHT30;51452;47.698;19.050;2023-12-20T03:48:46;-0.37;83.30
64937;SHT30;51452;47.698;19.050;2023-12-20T03:51:12;-0.36;83.24
64937;SHT30;51452;47.698;19.050;2023-12-20T03:53:37;-0.27;82.77
64937;SHT30;51452;47.698;19.050;2023-12-20T03:56:03;-0.30;82.38
64937;SHT30;51452;47.698;19.050;2023-12-20T03:58:28;-0.40;82.44
64937;SHT30;51452;47.698;19.050;2023-12-20T04:00:54;-0.41;82.25
64937;SHT30;51452;47.698;19.050;2023-12-20T04:03:19;-0.56;82.52
64937;SHT30;51452;47.698;19.050;2023-12-20T04:05:45;-0.49;82.58
64937;SHT30;51452;47.698;19.050;2023-12-20T04:08:10;-0.47;82.74
64937;SHT30;51452;47.698;19.050;2023-12-20T04:10:36;-0.53;82.70
64937;SHT30;51452;47.698;19.050;2023-12-20T04:13:04;-0.60;82.70
64937;SHT30;51452;47.698;19.050;2023-12-20T04:15:30;-0.67;83.12
64937;SHT30;51452;47.698;19.050;2023-12-20T04:17:55;-0.70;83.24
64937;SHT30;51452;47.698;19.050;2023-12-20T04:20:20;-0.73;83.27
64937;SHT30;51452;47.698;19.050;2023-12-20T04:22:46;-0.83;83.37
64937;SHT30;51452;47.698;19.050;2023-12-20T04:25:11;-0.76;83.43
64937;SHT30;51452;47.698;19.050;2023-12-20T04:27:37;-0.67;82.88
64937;SHT30;51452;47.698;19.050;2023-12-20T04:30:02;-0.67;82.91
64937;SHT30;51452;47.698;19.050;2023-12-20T04:32:28;-0.68;82.34
64937;SHT30;51452;47.698;19.050;2023-12-20T04:34:54;-0.71;82.76
64937;SHT30;51452;47.698;19.050;2023-12-20T04:37:20;-0.80;82.88
64937;SHT30;51452;47.698;19.050;2023-12-20T04:39:45;-0.76;83.27
64937;SHT30;51452;47.698;19.050;2023-12-20T04:42:11;-0.76;83.37
64937;SHT30;51452;47.698;19.050;2023-12-20T04:44:36;-0.73;83.65
64937;SHT30;51452;47.698;19.050;2023-12-20T04:47:01;-0.61;83.36
64937;SHT30;51452;47.698;19.050;2023-12-20T04:49:27;-0.70;83.25
64937;SHT30;51452;47.698;19.050;2023-12-20T04:51:52;-0.63;83.54
64937;SHT30;51452;47.698;19.050;2023-12-20T04:54:18;-0.66;83.32
64937;SHT30;51452;47.698;19.050;2023-12-20T04:56:43;-0.74;83.26
64937;SHT30;51452;47.698;19.050;2023-12-20T04:59:08;-0.71;83.70
64937;SHT30;51452;47.698;19.050;2023-12-20T05:01:34;-0.66;83.45
64937;SHT30;51452;47.698;19.050;2023-12-20T05:03:59;-0.64;83.91
64937;SHT30;51452;47.698;19.050;2023-12-20T05:06:25;-0.68;84.04
64937;SHT30;51452;47.698;19.050;2023-12-20T05:08:50;-0.71;84.28
64937;SHT30;51452;47.698;19.050;2023-12-20T05:11:15;-0.77;84.59
64937;SHT30;51452;47.698;19.050;2023-12-20T05:13:41;-0.84;84.66
64937;SHT30;51452;47.698;19.050;2023-12-20T05:16:06;-0.77;84.43
64937;SHT30;51452;47.698;19.050;2023-12-20T05:18:32;-0.88;83.97
64937;SHT30;51452;47.698;19.050;2023-12-20T05:20:57;-0.91;83.69
64937;SHT30;51452;47.698;19.050;2023-12-20T05:23:23;-0.98;83.35
64937;SHT30;51452;47.698;19.050;2023-12-20T05:25:48;-0.97;83.20
64937;SHT30;51452;47.698;19.050;2023-12-20T05:28:14;-0.91;82.41
64937;SHT30;51452;47.698;19.050;2023-12-20T05:30:40;-1.02;81.17
64937;SHT30;51452;47.698;19.050;2023-12-20T05:33:05;-0.97;81.72
64937;SHT30;51452;47.698;19.050;2023-12-20T05:35:30;-0.87;81.09
64937;SHT30;51452;47.698;19.050;2023-12-20T05:37:56;-0.74;80.85
64937;SHT30;51452;47.698;19.050;2023-12-20T05:40:21;-0.71;80.88
64937;SHT30;51452;47.698;19.050;2023-12-20T05:42:46;-0.67;81.25
64937;SHT30;51452;47.698;19.050;2023-12-20T05:45:12;-0.64;81.42
64937;SHT30;51452;47.698;19.050;2023-12-20T05:47:38;-0.63;81.10
64937;SHT30;51452;47.698;19.050;2023-12-20T05:50:04;-0.63;81.29
64937;SHT30;51452;47.698;19.050;2023-12-20T05:52:29;-0.58;80.47
64937;SHT30;51452;47.698;19.050;2023-12-20T05:54:54;-0.71;81.02
64937;SHT30;51452;47.698;19.050;2023-12-20T05:57:21;-0.60;80.81
64937;SHT30;51452;47.698;19.050;2023-12-20T05:59:48;-0.66;80.64
64937;SHT30;51452;47.698;19.050;2023-12-20T06:02:13;-0.60;80.96
64937;SHT30;51452;47.698;19.050;2023-12-20T06:04:42;-0.66;81.13
64937;SHT30;51452;47.698;19.050;2023-12-20T06:07:08;-0.66;81.35
64937;SHT30;51452;47.698;19.050;2023-12-20T06:09:33;-0.67;81.75
64937;SHT30;51452;47.698;19.050;2023-12-20T06:11:58;-0.60;81.69
64937;SHT30;51452;47.698;19.050;2023-12-20T06:14:24;-0.58;81.58
64937;SHT30;51452;47.698;19.050;2023-12-20T06:16:49;-0.54;81.49
64937;SHT30;51452;47.698;19.050;2023-12-20T06:19:14;-0.66;81.60
64937;SHT30;51452;47.698;19.050;2023-12-20T06:21:40;-0.66;81.91
64937;SHT30;51452;47.698;19.050;2023-12-20T06:24:06;-0.68;81.69
64937;SHT30;51452;47.698;19.050;2023-12-20T06:26:31;-0.70;81.80
64937;SHT30;51452;47.698;19.050;2023-12-20T06:28:56;-0.68;81.41
64937;SHT30;51452;47.698;19.050;2023-12-20T06:31:22;-0.70;82.06
64937;SHT30;51452;47.698;19.050;2023-12-20T06:33:47;-0.58;82.05
64937;SHT30;51452;47.698;19.050;2023-12-20T06:36:15;-0.56;82.24
64937;SHT30;51452;47.698;19.050;2023-12-20T06:38:40;-0.60;82.34
64937;SHT30;51452;47.698;19.050;2023-12-20T06:41:07;-0.60;82.82
64937;SHT30;51452;47.698;19.050;2023-12-20T06:43:32;-0.57;82.96
64937;SHT30;51452;47.698;19.050;2023-12-20T06:46:00;-0.67;83.27
64937;SHT30;51452;47.698;19.050;2023-12-20T06:48:25;-0.68;83.31
64937;SHT30;51452;47.698;19.050;2023-12-20T06:50:51;-0.68;84.07
64937;SHT30;51452;47.698;19.050;2023-12-20T06:53:16;-0.53;84.06
64937;SHT30;51452;47.698;19.050;2023-12-20T06:55:41;-0.50;83.70
64937;SHT30;51452;47.698;19.050;2023-12-20T06:58:07;-0.63;82.95
64937;SHT30;51452;47.698;19.050;2023-12-20T07:00:34;-0.70;83.37
64937;SHT30;51452;47.698;19.050;2023-12-20T07:02:59;-0.70;83.09
64937;SHT30;51452;47.698;19.050;2023-12-20T07:05:24;-0.68;83.14
64937;SHT30;51452;47.698;19.050;2023-12-20T07:07:50;-0.70;82.63
64937;SHT30;51452;47.698;19.050;2023-12-20T07:10:16;-0.74;82.72
64937;SHT30;51452;47.698;19.050;2023-12-20T07:12:42;-0.81;82.15
64937;SHT30;51452;47.698;19.050;2023-12-20T07:15:07;-0.89;81.89
64937;SHT30;51452;47.698;19.050;2023-12-20T07:17:34;-0.89;81.07
64937;SHT30;51452;47.698;19.050;2023-12-20T07:19:59;-1.09;80.30
64937;SHT30;51452;47.698;19.050;2023-12-20T07:22:32;-1.05;80.57
64937;SHT30;51452;47.698;19.050;2023-12-20T07:25:00;-1.01;80.24
64937;SHT30;51452;47.698;19.050;2023-12-20T07:27:26;-0.97;79.17
64937;SHT30;51452;47.698;19.050;2023-12-20T07:29:51;-1.02;78.59
64937;SHT30;51452;47.698;19.050;2023-12-20T07:32:17;-1.07;78.25
64937;SHT30;51452;47.698;19.050;2023-12-20T07:34:43;-1.08;78.56
64937;SHT30;51452;47.698;19.050;2023-12-20T07:37:08;-0.92;78.20
64937;SHT30;51452;47.698;19.050;2023-12-20T07:39:37;-0.73;78.20
64937;SHT30;51452;47.698;19.050;2023-12-20T07:42:03;-0.63;78.34
64937;SHT30;51452;47.698;19.050;2023-12-20T07:44:28;-0.54;78.25
64937;SHT30;51452;47.698;19.050;2023-12-20T07:46:53;-0.50;78.83
64937;SHT30;51452;47.698;19.050;2023-12-20T07:49:19;-0.39;79.01
64937;SHT30;51452;47.698;19.050;2023-12-20T07:51:44;-0.32;78.75
64937;SHT30;51452;47.698;19.050;2023-12-20T07:54:10;-0.33;78.30
64937;SHT30;51452;47.698;19.050;2023-12-20T07:56:35;-0.36;78.49
64937;SHT30;51452;47.698;19.050;2023-12-20T07:59:00;-0.47;78.85
64937;SHT30;51452;47.698;19.050;2023-12-20T08:01:26;-0.57;79.15
64937;SHT30;51452;47.698;19.050;2023-12-20T08:03:52;-0.57;79.96
64937;SHT30;51452;47.698;19.050;2023-12-20T08:06:17;-0.52;79.75
64937;SHT30;51452;47.698;19.050;2023-12-20T08:08:43;-0.56;79.66
64937;SHT30;51452;47.698;19.050;2023-12-20T08:11:08;-0.58;80.04
64937;SHT30;51452;47.698;19.050;2023-12-20T08:13:34;-0.57;80.05
64937;SHT30;51452;47.698;19.050;2023-12-20T08:15:59;-0.46;79.64
64937;SHT30;51452;47.698;19.050;2023-12-20T08:18:25;-0.39;79.18
64937;SHT30;51452;47.698;19.050;2023-12-20T08:20:50;-0.47;79.49
64937;SHT30;51452;47.698;19.050;2023-12-20T08:23:18;-0.41;79.60
64937;SHT30;51452;47.698;19.050;2023-12-20T08:25:44;-0.33;79.76
64937;SHT30;51452;47.698;19.050;2023-12-20T08:28:09;-0.27;79.75
64937;SHT30;51452;47.698;19.050;2023-12-20T08:30:35;-0.26;80.32
64937;SHT30;51452;47.698;19.050;2023-12-20T08:33:00;-0.09;80.21
64937;SHT30;51452;47.698;19.050;2023-12-20T08:35:26;-0.02;80.24
64937;SHT30;51452;47.698;19.050;2023-12-20T08:37:51;0.09;80.29
64937;SHT30;51452;47.698;19.050;2023-12-20T08:40:17;0.15;80.49
64937;SHT30;51452;47.698;19.050;2023-12-20T08:42:42;0.22;80.71
64937;SHT30;51452;47.698;19.050;2023-12-20T08:45:08;0.36;80.96
64937;SHT30;51452;47.698;19.050;2023-12-20T08:47:33;0.43;80.89
64937;SHT30;51452;47.698;19.050;2023-12-20T08:49:59;0.38;80.85
64937;SHT30;51452;47.698;19.050;2023-12-20T08:52:25;0.45;81.17
64937;SHT30;51452;47.698;19.050;2023-12-20T08:54:52;0.56;81.42
64937;SHT30;51452;47.698;19.050;2023-12-20T08:57:19;0.63;81.38
64937;SHT30;51452;47.698;19.050;2023-12-20T08:59:46;0.73;81.29
64937;SHT30;51452;47.698;19.050;2023-12-20T09:02:12;0.81;81.38
64937;SHT30;51452;47.698;19.050;2023-12-20T09:04:37;0.90;81.50
64937;SHT30;51452;47.698;19.050;2023-12-20T09:07:03;0.93;81.14
64937;SHT30;51452;47.698;19.050;2023-12-20T09:09:28;0.90;80.94
64937;SHT30;51452;47.698;19.050;2023-12-20T09:11:54;0.88;81.33
64937;SHT30;51452;47.698;19.050;2023-12-20T09:14:19;0.93;81.66
64937;SHT30;51452;47.698;19.050;2023-12-20T09:16:45;0.91;81.89
64937;SHT30;51452;47.698;19.050;2023-12-20T09:19:10;0.98;81.75
64937;SHT30;51452;47.698;19.050;2023-12-20T09:21:36;0.94;81.82
64937;SHT30;51452;47.698;19.050;2023-12-20T09:24:01;1.01;82.14
64937;SHT30;51452;47.698;19.050;2023-12-20T09:26:26;1.03;82.47
64937;SHT30;51452;47.698;19.050;2023-12-20T09:28:52;1.08;82.36
64937;SHT30;51452;47.698;19.050;2023-12-20T09:31:17;1.15;82.27
64937;SHT30;51452;47.698;19.050;2023-12-20T09:33:42;1.21;82.54
64937;SHT30;51452;47.698;19.050;2023-12-20T09:36:08;1.24;82.25
64937;SHT30;51452;47.698;19.050;2023-12-20T09:38:33;1.31;82.19
64937;SHT30;51452;47.698;19.050;2023-12-20T09:40:58;1.24;82.19
64937;SHT30;51452;47.698;19.050;2023-12-20T09:43:24;1.27;82.60
64937;SHT30;51452;47.698;19.050;2023-12-20T09:45:53;1.34;82.20
64937;SHT30;51452;47.698;19.050;2023-12-20T09:48:19;1.44;82.52
64937;SHT30;51452;47.698;19.050;2023-12-20T09:50:45;1.48;82.06
64937;SHT30;51452;47.698;19.050;2023-12-20T09:53:14;1.45;82.22
64937;SHT30;51452;47.698;19.050;2023-12-20T09:55:41;1.46;82.73
64937;SHT30;51452;47.698;19.050;2023-12-20T09:58:07;1.51;82.90
64937;SHT30;51452;47.698;19.050;2023-12-20T10:00:34;1.56;82.74
64937;SHT30;51452;47.698;19.050;2023-12-20T10:03:00;1.66;82.57
64937;SHT30;51452;47.698;19.050;2023-12-20T10:05:31;1.73;82.85
64937;SHT30;51452;47.698;19.050;2023-12-20T10:07:57;1.80;82.73
64937;SHT30;51452;47.698;19.050;2023-12-20T10:10:24;1.89;82.30
64937;SHT30;51452;47.698;19.050;2023-12-20T10:13:15;1.89;82.08
64937;SHT30;51452;47.698;19.050;2023-12-20T10:15:41;2.00;82.03
64937;SHT30;51452;47.698;19.050;2023-12-20T10:18:06;2.00;81.93
64937;SHT30;51452;47.698;19.050;2023-12-20T10:20:32;2.07;81.77
64937;SHT30;51452;47.698;19.050;2023-12-20T10:22:58;2.13;81.62
64937;SHT30;51452;47.698;19.050;2023-12-20T10:25:24;2.17;81.85
64937;SHT30;51452;47.698;19.050;2023-12-20T10:28:14;2.16;81.67
64937;SHT30;51452;47.698;19.050;2023-12-20T10:30:42;2.23;81.73
64937;SHT30;51452;47.698;19.050;2023-12-20T10:33:08;2.24;81.88
64937;SHT30;51452;47.698;19.050;2023-12-20T10:35:35;2.35;81.77
64937;SHT30;51452;47.698;19.050;2023-12-20T10:38:03;2.35;81.26
64937;SHT30;51452;47.698;19.050;2023-12-20T10:40:30;2.38;81.21
64937;SHT30;51452;47.698;19.050;2023-12-20T10:42:56;2.33;81.56
64937;SHT30;51452;47.698;19.050;2023-12-20T10:45:23;2.35;81.50
64937;SHT30;51452;47.698;19.050;2023-12-20T10:47:50;2.40;81.27
64937;SHT30;51452;47.698;19.050;2023-12-20T10:50:15;2.37;80.78
64937;SHT30;51452;47.698;19.050;2023-12-20T10:52:42;2.42;80.49
64937;SHT30;51452;47.698;19.050;2023-12-20T10:55:08;2.40;81.06
64937;SHT30;51452;47.698;19.050;2023-12-20T10:57:35;2.42;81.35
64937;SHT30;51452;47.698;19.050;2023-12-20T11:00:01;2.49;81.41
64937;SHT30;51452;47.698;19.050;2023-12-20T11:02:32;2.54;81.34
64937;SHT30;51452;47.698;19.050;2023-12-20T11:07:44;2.55;81.26
64937;SHT30;51452;47.698;19.050;2023-12-20T11:10:23;2.61;81.81
64937;SHT30;51452;47.698;19.050;2023-12-20T11:12:54;2.69;81.57
64937;SHT30;51452;47.698;19.050;2023-12-20T11:15:27;2.78;81.47
64937;SHT30;51452;47.698;19.050;2023-12-20T11:17:57;2.85;81.82
64937;SHT30;51452;47.698;19.050;2023-12-20T11:20:24;2.92;82.11
64937;SHT30;51452;47.698;19.050;2023-12-20T11:22:58;3.02;81.61
64937;SHT30;51452;47.698;19.050;2023-12-20T11:25:23;3.02;81.12
64937;SHT30;51452;47.698;19.050;2023-12-20T11:28:10;3.00;81.09
64937;SHT30;51452;47.698;19.050;2023-12-20T11:30:46;3.10;81.08
64937;SHT30;51452;47.698;19.050;2023-12-20T11:33:13;3.10;81.33
64937;SHT30;51452;47.698;19.050;2023-12-20T11:35:39;3.15;81.81
64937;SHT30;51452;47.698;19.050;2023-12-20T11:38:08;3.19;81.86
64937;SHT30;51452;47.698;19.050;2023-12-20T11:40:34;3.31;81.41
64937;SHT30;51452;47.698;19.050;2023-12-20T11:43:00;3.13;81.99
64937;SHT30;51452;47.698;19.050;2023-12-20T11:45:25;3.33;81.97
64937;SHT30;51452;47.698;19.050;2023-12-20T11:47:52;3.50;81.53
64937;SHT30;51452;47.698;19.050;2023-12-20T11:50:22;3.61;81.20
64937;SHT30;51452;47.698;19.050;2023-12-20T11:52:48;3.71;81.40
64937;SHT30;51452;47.698;19.050;2023-12-20T11:55:14;3.66;81.14
64937;SHT30;51452;47.698;19.050;2023-12-20T11:57:40;3.66;80.76
64937;SHT30;51452;47.698;19.050;2023-12-20T12:00:06;3.61;81.31
64937;SHT30;51452;47.698;19.050;2023-12-20T12:02:32;3.70;81.44
64937;SHT30;51452;47.698;19.050;2023-12-20T12:04:57;3.77;81.46
64937;SHT30;51452;47.698;19.050;2023-12-20T12:07:24;3.84;81.12
64937;SHT30;51452;47.698;19.050;2023-12-20T12:09:49;3.84;81.13
64937;SHT30;51452;47.698;19.050;2023-12-20T12:12:15;3.84;81.37
64937;SHT30;51452;47.698;19.050;2023-12-20T12:14:40;3.85;81.56
64937;SHT30;51452;47.698;19.050;2023-12-20T12:17:13;3.95;81.63
64937;SHT30;51452;47.698;19.050;2023-12-20T12:19:39;3.98;81.92
64937;SHT30;51452;47.698;19.050;2023-12-20T12:22:05;4.05;81.42
64937;SHT30;51452;47.698;19.050;2023-12-20T12:24:36;4.05;82.32
64937;SHT30;51452;47.698;19.050;2023-12-20T12:27:02;4.03;82.36
64937;SHT30;51452;47.698;19.050;2023-12-20T12:29:28;4.20;83.48
64937;SHT30;51452;47.698;19.050;2023-12-20T12:31:54;4.46;82.91
64937;SHT30;51452;47.698;19.050;2023-12-20T12:34:20;4.60;82.84
64937;SHT30;51452;47.698;19.050;2023-12-20T12:36:45;4.71;82.08
64937;SHT30;51452;47.698;19.050;2023-12-20T12:39:17;4.69;81.90
64937;SHT30;51452;47.698;19.050;2023-12-20T12:41:43;4.71;81.88
64937;SHT30;51452;47.698;19.050;2023-12-20T12:44:09;4.63;81.89
64937;SHT30;51452;47.698;19.050;2023-12-20T12:46:34;4.49;82.13
64937;SHT30;51452;47.698;19.050;2023-12-20T12:49:00;4.54;82.26
64937;SHT30;51452;47.698;19.050;2023-12-20T12:51:25;4.57;82.42
64937;SHT30;51452;47.698;19.050;2023-12-20T12:53:51;4.74;82.05
64937;SHT30;51452;47.698;19.050;2023-12-20T12:56:17;4.87;81.83
64937;SHT30;51452;47.698;19.050;2023-12-20T12:58:42;4.81;81.80
64937;SHT30;51452;47.698;19.050;2023-12-20T13:01:08;4.71;81.83
64937;SHT30;51452;47.698;19.050;2023-12-20T13:03:35;4.69;82.59
64937;SHT30;51452;47.698;19.050;2023-12-20T13:06:00;4.74;82.04
64937;SHT30;51452;47.698;19.050;2023-12-20T13:08:25;4.71;82.01
64937;SHT30;51452;47.698;19.050;2023-12-20T13:10:51;4.85;81.56
64937;SHT30;51452;47.698;19.050;2023-12-20T13:13:17;4.76;81.65
64937;SHT30;51452;47.698;19.050;2023-12-20T13:15:43;4.83;81.34
64937;SHT30;51452;47.698;19.050;2023-12-20T13:18:15;4.83;80.88
64937;SHT30;51452;47.698;19.050;2023-12-20T13:20:41;4.83;80.86
64937;SHT30;51452;47.698;19.050;2023-12-20T13:23:06;4.80;81.11
64937;SHT30;51452;47.698;19.050;2023-12-20T13:25:32;4.84;81.27
64937;SHT30;51452;47.698;19.050;2023-12-20T13:27:58;4.81;81.14
64937;SHT30;51452;47.698;19.050;2023-12-20T13:30:24;4.94;81.11
64937;SHT30;51452;47.698;19.050;2023-12-20T13:32:53;4.88;81.00
64937;SHT30;51452;47.698;19.050;2023-12-20T13:35:18;4.97;80.99
64937;SHT30;51452;47.698;19.050;2023-12-20T13:37:44;4.95;80.83
64937;SHT30;51452;47.698;19.050;2023-12-20T13:40:11;5.07;80.80
64937;SHT30;51452;47.698;19.050;2023-12-20T13:42:36;5.05;80.60
64937;SHT30;51452;47.698;19.050;2023-12-20T13:45:02;5.00;80.55
64937;SHT30;51452;47.698;19.050;2023-12-20T13:47:27;4.94;80.73
64937;SHT30;51452;47.698;19.050;2023-12-20T13:49:54;4.98;80.66
64937;SHT30;51452;47.698;19.050;2023-12-20T13:52:21;5.02;80.54
64937;SHT30;51452;47.698;19.050;2023-12-20T13:54:46;5.07;80.59
64937;SHT30;51452;47.698;19.050;2023-12-20T13:57:12;5.11;80.62
64937;SHT30;51452;47.698;19.050;2023-12-20T13:59:38;5.14;80.48
64937;SHT30;51452;47.698;19.050;2023-12-20T14:02:04;5.21;80.41
64937;SHT30;51452;47.698;19.050;2023-12-20T14:04:32;5.19;80.62
64937;SHT30;51452;47.698;19.050;2023-12-20T14:06:57;5.18;80.71
64937;SHT30;51452;47.698;19.050;2023-12-20T14:09:23;5.25;80.44
64937;SHT30;51452;47.698;19.050;2023-12-20T14:11:48;5.25;80.33
64937;SHT30;51452;47.698;19.050;2023-12-20T14:14:14;5.21;80.60
64937;SHT30;51452;47.698;19.050;2023-12-20T14:16:39;5.21;80.35
64937;SHT30;51452;47.698;19.050;2023-12-20T14:19:04;5.21;80.51
64937;SHT30;51452;47.698;19.050;2023-12-20T14:21:33;5.17;80.62
64937;SHT30;51452;47.698;19.050;2023-12-20T14:23:58;5.14;80.52
64937;SHT30;51452;47.698;19.050;2023-12-20T14:26:24;5.19;80.07
64937;SHT30;51452;47.698;19.050;2023-12-20T14:28:49;5.18;79.95
64937;SHT30;51452;47.698;19.050;2023-12-20T14:31:18;5.12;79.79
64937;SHT30;51452;47.698;19.050;2023-12-20T14:33:44;5.11;79.88
64937;SHT30;51452;47.698;19.050;2023-12-20T14:36:11;5.01;79.94
64937;SHT30;51452;47.698;19.050;2023-12-20T14:38:36;4.92;80.01
64937;SHT30;51452;47.698;19.050;2023-12-20T14:41:02;4.97;79.78
64937;SHT30;51452;47.698;19.050;2023-12-20T14:43:29;4.88;79.83
64937;SHT30;51452;47.698;19.050;2023-12-20T14:46:06;4.87;79.87
64937;SHT30;51452;47.698;19.050;2023-12-20T14:48:32;4.84;79.70
64937;SHT30;51452;47.698;19.050;2023-12-20T14:50:58;4.85;79.82
64937;SHT30;51452;47.698;19.050;2023-12-20T14:57:23;4.63;80.41
64937;SHT30;51452;47.698;19.050;2023-12-20T15:03:21;4.70;80.10
64937;SHT30;51452;47.698;19.050;2023-12-20T15:05:50;4.69;80.22
64937;SHT30;51452;47.698;19.050;2023-12-20T15:08:21;4.76;80.01
64937;SHT30;51452;47.698;19.050;2023-12-20T15:10:54;4.80;79.91
64937;SHT30;51452;47.698;19.050;2023-12-20T15:13:19;4.84;79.72
64937;SHT30;51452;47.698;19.050;2023-12-20T15:15:48;4.83;79.60
64937;SHT30;51452;47.698;19.050;2023-12-20T15:18:14;4.81;79.50
64937;SHT30;51452;47.698;19.050;2023-12-20T15:20:42;4.84;79.53
64937;SHT30;51452;47.698;19.050;2023-12-20T15:23:10;4.88;79.53
64937;SHT30;51452;47.698;19.050;2023-12-20T15:25:41;4.85;79.65